Time;durP1;ratioP1;P1;durP2;ratioP2;P2;SDS_P1;SDS_P2;PMS_P1;PMS_P2;Temp;Humidity;BMP_temperature;BMP_pressure;BME280_temperature;BME280_humidity;BME280_pressure;Samples;Min_cycle;Max_cycle;Signal;HPM_P1;HPM_P2
2022/08/30 00:02:32;;;;;;;2.20;1.92;;;25.70;51.90;;;;;;5060457;28;20085;-64
2022/08/30 00:05:00;;;;;;;2.50;2.10;;;25.70;52.00;;;;;;5063932;28;20146;-67
2022/08/30 00:07:26;;;;;;;2.28;1.77;;;25.70;51.90;;;;;;5061173;28;20396;-65
2022/08/30 00:09:52;;;;;;;2.47;2.10;;;25.70;52.00;;;;;;5061404;28;20070;-65
2022/08/30 00:12:19;;;;;;;2.30;1.80;;;25.70;51.90;;;;;;5062208;28;20060;-64
2022/08/30 00:14:45;;;;;;;2.22;1.92;;;25.70;51.90;;;;;;5061553;28;20053;-65
2022/08/30 00:17:11;;;;;;;2.78;2.00;;;25.70;52.00;;;;;;5061206;28;20032;-65
2022/08/30 00:19:37;;;;;;;2.65;2.00;;;25.70;52.00;;;;;;5060854;28;20029;-65
2022/08/30 00:22:03;;;;;;;2.58;2.00;;;25.70;52.00;;;;;;5061254;28;20033;-66
2022/08/30 00:24:29;;;;;;;2.40;1.88;;;25.70;52.00;;;;;;5062032;28;20483;-65
2022/08/30 00:26:55;;;;;;;2.58;1.90;;;25.70;52.00;;;;;;5060036;28;20025;-65
2022/08/30 00:29:21;;;;;;;2.40;1.90;;;25.70;52.00;;;;;;5061813;28;20441;-65
2022/08/30 00:31:47;;;;;;;2.60;2.00;;;25.70;52.00;;;;;;5060236;28;20043;-65
2022/08/30 00:34:13;;;;;;;3.35;2.13;;;25.70;52.00;;;;;;5061457;28;20029;-65
2022/08/30 00:36:38;;;;;;;2.80;2.10;;;25.70;52.00;;;;;;5060741;28;20028;-65
2022/08/30 00:39:05;;;;;;;2.58;1.98;;;25.70;52.00;;;;;;5061795;28;20399;-64
2022/08/30 00:41:31;;;;;;;2.70;2.03;;;25.70;52.00;;;;;;5059942;28;20457;-65
2022/08/30 00:43:56;;;;;;;3.05;2.20;;;25.70;52.00;;;;;;5061838;28;20060;-65
2022/08/30 00:46:22;;;;;;;2.60;2.15;;;25.70;52.00;;;;;;5060077;28;20099;-65
2022/08/30 00:48:49;;;;;;;2.75;2.15;;;25.70;52.00;;;;;;5060151;28;20498;-66
2022/08/30 00:51:17;;;;;;;2.60;1.90;;;25.70;52.00;;;;;;5061066;28;20059;-67
2022/08/30 00:53:47;;;;;;;2.67;2.10;;;25.70;52.00;;;;;;5060450;28;20035;-66
2022/08/30 00:56:14;;;;;;;2.78;2.00;;;25.70;52.10;;;;;;5060469;28;20481;-65
2022/08/30 00:58:44;;;;;;;2.40;1.77;;;25.70;52.00;;;;;;5060336;28;20455;-66
2022/08/30 01:01:10;;;;;;;2.78;2.00;;;25.70;52.00;;;;;;5060149;28;20508;-65
2022/08/30 01:03:37;;;;;;;2.33;1.90;;;25.70;52.00;;;;;;5060761;28;20029;-66
2022/08/30 01:06:04;;;;;;;2.03;1.80;;;25.70;52.00;;;;;;5061721;28;20040;-65
2022/08/30 01:08:30;;;;;;;2.38;1.90;;;25.60;52.00;;;;;;5059855;28;20040;-66
2022/08/30 01:10:57;;;;;;;2.47;2.13;;;25.60;52.00;;;;;;5060306;28;20029;-66
2022/08/30 01:13:25;;;;;;;2.20;1.80;;;25.60;52.00;;;;;;5061414;28;20090;-65
2022/08/30 01:15:52;;;;;;;2.53;2.10;;;25.60;52.00;;;;;;5060735;28;20037;-66
2022/08/30 01:18:19;;;;;;;2.40;1.98;;;25.60;52.00;;;;;;5062540;28;20028;-67
2022/08/30 01:21:06;;;;;;;2.15;1.90;;;25.60;52.00;;;;;;5063215;28;20461;-67
2022/08/30 01:23:33;;;;;;;2.78;1.88;;;25.60;52.00;;;;;;5062668;28;20092;-65
2022/08/30 01:26:00;;;;;;;2.38;1.90;;;25.60;52.00;;;;;;5064264;28;20517;-66
2022/08/30 01:28:28;;;;;;;2.75;2.10;;;25.60;52.00;;;;;;5063751;28;20017;-65
2022/08/30 01:30:54;;;;;;;2.17;1.90;;;25.60;52.00;;;;;;5063658;28;20029;-67
2022/08/30 01:33:20;;;;;;;2.40;1.90;;;25.60;52.00;;;;;;5065302;28;20044;-66
2022/08/30 01:35:58;;;;;;;2.45;1.90;;;25.60;52.00;;;;;;5064525;28;20472;-66
2022/08/30 01:38:28;;;;;;;2.30;1.75;;;25.60;52.00;;;;;;5062711;28;20135;-65
2022/08/30 01:41:26;;;;;;;2.50;1.88;;;25.60;52.00;;;;;;5064713;28;20031;-65
2022/08/30 01:43:54;;;;;;;2.20;1.90;;;25.60;52.00;;;;;;5062244;28;20087;-66
2022/08/30 01:46:23;;;;;;;2.70;1.95;;;25.60;52.00;;;;;;5063152;28;20432;-65
2022/08/30 01:48:49;;;;;;;2.67;1.83;;;25.60;52.00;;;;;;5060887;28;20025;-65
2022/08/30 01:51:15;;;;;;;2.30;1.90;;;25.60;52.00;;;;;;5064862;28;20048;-65
2022/08/30 01:53:43;;;;;;;2.10;1.70;;;25.60;52.00;;;;;;5063402;28;20028;-67
2022/08/30 01:56:10;;;;;;;2.20;1.70;;;25.60;52.00;;;;;;5062684;28;20037;-65
2022/08/30 01:58:36;;;;;;;2.80;1.80;;;25.60;52.00;;;;;;5064989;28;20040;-64
2022/08/30 02:01:08;;;;;;;2.50;2.10;;;25.60;52.00;;;;;;5045191;28;20043;-65
2022/08/30 02:03:35;;;;;;;2.63;1.90;;;25.60;52.00;;;;;;5062342;28;20025;-66
2022/08/30 02:06:06;;;;;;;2.20;1.80;;;25.60;52.50;;;;;;5063508;28;20035;-65
2022/08/30 02:08:32;;;;;;;2.40;1.90;;;25.60;52.60;;;;;;5062734;28;20425;-65
2022/08/30 02:10:58;;;;;;;2.45;1.90;;;25.60;52.00;;;;;;5064479;28;20028;-65
2022/08/30 02:13:29;;;;;;;2.50;1.90;;;25.60;52.00;;;;;;5062645;28;20546;-64
2022/08/30 02:15:55;;;;;;;1.92;1.60;;;25.60;52.00;;;;;;5060321;28;20586;-65
2022/08/30 02:18:22;;;;;;;2.25;1.80;;;25.50;52.00;;;;;;5062075;28;20552;-65
2022/08/30 02:20:48;;;;;;;2.33;1.77;;;25.60;52.00;;;;;;5062182;28;20455;-66
2022/08/30 02:23:13;;;;;;;2.38;1.92;;;25.50;52.00;;;;;;5065148;28;20024;-65
2022/08/30 02:25:40;;;;;;;2.05;1.70;;;25.50;52.00;;;;;;5044318;28;20124;-67
2022/08/30 02:28:06;;;;;;;2.50;1.90;;;25.50;52.00;;;;;;5064133;28;20067;-66
2022/08/30 02:30:32;;;;;;;2.30;1.80;;;25.50;52.00;;;;;;5061925;28;20570;-65
2022/08/30 02:32:57;;;;;;;2.35;1.88;;;25.50;52.00;;;;;;5064685;28;20024;-65
2022/08/30 02:35:23;;;;;;;2.22;1.77;;;25.50;52.00;;;;;;5063979;28;20033;-65
2022/08/30 02:37:49;;;;;;;2.53;1.80;;;25.50;52.00;;;;;;5061297;28;20025;-65
2022/08/30 02:40:14;;;;;;;2.15;1.70;;;25.50;52.00;;;;;;5063039;28;20464;-67
2022/08/30 02:42:40;;;;;;;1.90;1.60;;;25.50;52.00;;;;;;5062920;28;20025;-65
2022/08/30 02:45:07;;;;;;;2.20;1.80;;;25.50;52.00;;;;;;5063297;28;20052;-64
2022/08/30 02:47:33;;;;;;;2.33;1.70;;;25.50;52.00;;;;;;5061207;28;20033;-65
2022/08/30 02:49:58;;;;;;;2.42;1.80;;;25.50;52.00;;;;;;5063058;28;20028;-65
2022/08/30 02:52:24;;;;;;;2.38;1.83;;;25.50;52.00;;;;;;5062737;28;20034;-65
2022/08/30 02:54:49;;;;;;;2.10;1.67;;;25.50;52.00;;;;;;5063456;28;20029;-65
2022/08/30 02:57:15;;;;;;;2.38;1.70;;;25.50;52.00;;;;;;5061797;28;20068;-65
2022/08/30 02:59:44;;;;;;;2.45;1.80;;;25.50;52.00;;;;;;5059517;28;20040;-65
2022/08/30 03:02:10;;;;;;;2.42;1.85;;;25.50;52.00;;;;;;5062974;28;20078;-65
2022/08/30 03:04:38;;;;;;;2.90;1.70;;;25.50;52.00;;;;;;5063658;28;20036;-66
2022/08/30 03:07:05;;;;;;;2.47;1.90;;;25.50;52.00;;;;;;5061842;28;20028;-65
2022/08/30 03:09:31;;;;;;;2.33;1.60;;;25.50;52.00;;;;;;5063466;28;20037;-66
2022/08/30 03:11:57;;;;;;;2.00;1.63;;;25.50;52.00;;;;;;5062347;28;20417;-65
2022/08/30 03:14:23;;;;;;;2.08;1.60;;;25.50;52.00;;;;;;5062183;28;20131;-66
2022/08/30 03:16:48;;;;;;;2.00;1.58;;;25.50;52.00;;;;;;5062660;28;20024;-64
2022/08/30 03:19:14;;;;;;;2.40;1.80;;;25.50;52.10;;;;;;5061982;28;20464;-65
2022/08/30 03:21:40;;;;;;;1.77;1.55;;;25.50;52.00;;;;;;5062247;28;20029;-65
2022/08/30 03:24:05;;;;;;;2.20;1.70;;;25.40;52.00;;;;;;5062866;28;20052;-65
2022/08/30 03:26:31;;;;;;;2.00;1.60;;;25.50;52.00;;;;;;5061133;28;20521;-66
2022/08/30 03:28:57;;;;;;;2.40;1.88;;;25.40;52.00;;;;;;5062964;28;20031;-66
2022/08/30 03:31:23;;;;;;;2.40;1.88;;;25.40;52.00;;;;;;5061204;28;20028;-65
2022/08/30 03:33:49;;;;;;;2.33;1.70;;;25.40;52.00;;;;;;5061716;28;20021;-66
2022/08/30 03:36:15;;;;;;;2.20;1.60;;;25.40;52.00;;;;;;5061088;28;20040;-66
2022/08/30 03:38:41;;;;;;;2.08;1.73;;;25.40;52.00;;;;;;5061005;28;20033;-66
2022/08/30 03:41:06;;;;;;;2.00;1.60;;;25.40;52.00;;;;;;5060648;28;20020;-65
2022/08/30 03:43:32;;;;;;;2.05;1.60;;;25.40;52.00;;;;;;5061960;28;20025;-65
2022/08/30 03:46:02;;;;;;;2.25;1.80;;;25.40;52.00;;;;;;5062345;28;20133;-66
2022/08/30 03:48:28;;;;;;;2.28;1.90;;;25.40;52.00;;;;;;5058500;28;20044;-66
2022/08/30 03:50:53;;;;;;;2.33;1.80;;;25.40;51.90;;;;;;5062128;28;20556;-65
2022/08/30 03:53:19;;;;;;;2.35;1.73;;;25.40;51.90;;;;;;5063099;28;20064;-65
2022/08/30 03:55:45;;;;;;;2.30;1.70;;;25.40;52.00;;;;;;5061342;28;20028;-65
2022/08/30 03:58:10;;;;;;;1.80;1.50;;;25.40;52.00;;;;;;5060461;28;20401;-64
2022/08/30 04:00:36;;;;;;;2.13;1.55;;;25.40;52.00;;;;;;5060704;28;20040;-65
2022/08/30 04:03:02;;;;;;;1.85;1.50;;;25.40;52.50;;;;;;5061831;28;20027;-65
2022/08/30 04:05:28;;;;;;;1.95;1.50;;;25.40;52.00;;;;;;5061652;28;20120;-65
2022/08/30 04:07:53;;;;;;;1.90;1.52;;;25.40;52.00;;;;;;5061483;28;20425;-66
2022/08/30 04:10:22;;;;;;;2.10;1.60;;;25.40;52.00;;;;;;5061743;28;20108;-65
2022/08/30 04:12:49;;;;;;;2.03;1.50;;;25.40;52.00;;;;;;5061978;28;20445;-64
2022/08/30 04:15:16;;;;;;;2.00;1.45;;;25.40;52.00;;;;;;5060929;28;20035;-67
2022/08/30 04:17:42;;;;;;;2.03;1.60;;;25.30;51.90;;;;;;5061643;28;20557;-65
2022/08/30 04:20:08;;;;;;;2.00;1.60;;;25.40;52.00;;;;;;5061906;28;20178;-66
2022/08/30 04:22:35;;;;;;;2.33;1.50;;;25.40;52.00;;;;;;5060687;28;20143;-67
2022/08/30 04:25:02;;;;;;;2.05;1.60;;;25.40;52.00;;;;;;5062165;28;20025;-65
2022/08/30 04:27:27;;;;;;;2.08;1.60;;;25.40;52.00;;;;;;5061482;28;20056;-66
2022/08/30 04:29:54;;;;;;;2.10;1.60;;;25.40;52.00;;;;;;5061309;28;20037;-66
2022/08/30 04:32:20;;;;;;;2.03;1.45;;;25.40;52.00;;;;;;5060076;28;20401;-64
2022/08/30 04:34:46;;;;;;;1.73;1.50;;;25.40;52.00;;;;;;5060494;28;20086;-66
2022/08/30 04:37:13;;;;;;;2.10;1.60;;;25.40;52.00;;;;;;5060683;28;20021;-66
2022/08/30 04:39:39;;;;;;;1.80;1.50;;;25.40;52.00;;;;;;5061169;28;20498;-65
2022/08/30 04:42:05;;;;;;;2.15;1.50;;;25.40;52.00;;;;;;5059804;28;20033;-66
2022/08/30 04:44:31;;;;;;;2.20;1.70;;;25.40;52.00;;;;;;5061172;28;20033;-66
2022/08/30 04:46:57;;;;;;;2.20;1.52;;;25.30;51.90;;;;;;5060469;28;20017;-66
2022/08/30 04:49:23;;;;;;;2.10;1.60;;;25.30;51.90;;;;;;5060289;28;20099;-65
2022/08/30 04:51:49;;;;;;;2.05;1.60;;;25.40;52.00;;;;;;5059313;28;20536;-65
2022/08/30 04:54:14;;;;;;;2.17;1.70;;;25.40;52.00;;;;;;5061851;28;20100;-66
2022/08/30 04:56:40;;;;;;;2.00;1.50;;;25.30;51.90;;;;;;5059643;28;20112;-64
2022/08/30 04:59:06;;;;;;;2.05;1.60;;;25.40;52.00;;;;;;5061009;28;20498;-64
2022/08/30 05:01:32;;;;;;;1.88;1.50;;;25.30;51.90;;;;;;5059882;28;20576;-64
2022/08/30 05:03:58;;;;;;;2.03;1.52;;;25.40;51.90;;;;;;5060316;28;20086;-64
2022/08/30 05:06:27;;;;;;;1.95;1.50;;;25.40;52.00;;;;;;5060901;28;20059;-64
2022/08/30 05:08:53;;;;;;;1.80;1.50;;;25.30;51.90;;;;;;5060592;28;20025;-64
2022/08/30 05:11:20;;;;;;;2.15;1.60;;;25.30;51.90;;;;;;5060575;28;20492;-64
2022/08/30 05:13:46;;;;;;;1.80;1.35;;;25.30;51.90;;;;;;5061080;28;20055;-64
2022/08/30 05:16:16;;;;;;;1.70;1.50;;;25.30;51.90;;;;;;5061117;28;20033;-64
2022/08/30 05:18:43;;;;;;;1.73;1.45;;;25.30;51.80;;;;;;5058090;28;20041;-64
2022/08/30 05:21:16;;;;;;;1.83;1.40;;;25.30;51.80;;;;;;5061414;28;20434;-64
2022/08/30 05:23:42;;;;;;;2.10;1.70;;;25.30;51.80;;;;;;5059904;28;20515;-64
2022/08/30 05:26:14;;;;;;;1.98;1.50;;;25.30;52.30;;;;;;5060705;28;20028;-64
2022/08/30 05:28:40;;;;;;;2.10;1.50;;;25.30;51.80;;;;;;5061084;28;20028;-64
2022/08/30 05:31:37;;;;;;;1.83;1.58;;;25.30;52.30;;;;;;5059052;28;20029;-64
2022/08/30 05:34:04;;;;;;;2.20;1.75;;;25.30;51.80;;;;;;5027159;28;20477;-64
2022/08/30 05:36:33;;;;;;;1.85;1.40;;;25.40;52.40;;;;;;5059827;28;20029;-64
2022/08/30 05:38:59;;;;;;;2.00;1.50;;;25.30;51.70;;;;;;5060296;28;20161;-64
2022/08/30 05:41:25;;;;;;;1.90;1.50;;;25.30;51.70;;;;;;5059919;28;20118;-63
2022/08/30 05:43:57;;;;;;;1.90;1.50;;;25.30;51.70;;;;;;5061051;28;20055;-64
2022/08/30 05:46:23;;;;;;;1.88;1.45;;;25.40;52.30;;;;;;5061157;28;20479;-63
2022/08/30 05:48:50;;;;;;;1.58;1.40;;;25.30;51.70;;;;;;5058876;28;20110;-63
2022/08/30 05:51:18;;;;;;;1.92;1.42;;;25.30;51.70;;;;;;5061066;28;20153;-64
2022/08/30 05:53:46;;;;;;;1.95;1.58;;;25.30;52.30;;;;;;5059938;28;20036;-64
2022/08/30 05:56:15;;;;;;;2.00;1.50;;;25.30;51.70;;;;;;5060663;28;20555;-63
2022/08/30 05:58:41;;;;;;;2.10;1.38;;;25.30;51.70;;;;;;5057320;28;20226;-64
2022/08/30 06:01:17;;;;;;;1.75;1.35;;;25.30;51.70;;;;;;5059385;28;20029;-63
2022/08/30 06:03:42;;;;;;;2.20;1.58;;;25.30;51.70;;;;;;5059182;28;20028;-64
2022/08/30 06:06:08;;;;;;;1.77;1.38;;;25.30;51.70;;;;;;5064250;28;20027;-64
2022/08/30 06:08:33;;;;;;;1.92;1.50;;;25.30;51.70;;;;;;5063878;28;20020;-63
2022/08/30 06:10:59;;;;;;;2.20;1.70;;;25.30;51.70;;;;;;5064191;28;20029;-63
2022/08/30 06:13:24;;;;;;;4.32;2.20;;;25.30;51.20;;;;;;5063755;28;20052;-63
2022/08/30 06:15:51;;;;;;;5.03;2.88;;;25.30;51.10;;;;;;5063115;28;20029;-65
2022/08/30 06:18:17;;;;;;;4.28;2.60;;;25.30;50.50;;;;;;5063727;28;20056;-65
2022/08/30 06:20:46;;;;;;;4.82;2.70;;;25.20;50.30;;;;;;5063223;28;20056;-65
2022/08/30 06:23:12;;;;;;;4.78;3.25;;;25.20;49.80;;;;;;5062466;28;20024;-65
2022/08/30 06:25:38;;;;;;;5.53;3.47;;;25.10;50.10;;;;;;5044083;28;20428;-65
2022/08/30 06:28:05;;;;;;;4.70;3.40;;;25.00;50.40;;;;;;5061835;28;20120;-65
2022/08/30 06:30:31;;;;;;;4.00;3.00;;;25.00;50.30;;;;;;5062085;28;20024;-64
2022/08/30 06:32:57;;;;;;;4.35;3.15;;;25.10;50.40;;;;;;5063695;28;20029;-65
2022/08/30 06:35:24;;;;;;;4.55;2.72;;;25.10;50.40;;;;;;5061282;28;20036;-65
2022/08/30 06:37:49;;;;;;;3.78;3.00;;;25.00;50.30;;;;;;5060830;28;20353;-64
2022/08/30 06:40:17;;;;;;;4.85;2.60;;;25.10;50.50;;;;;;5064019;28;20021;-65
2022/08/30 06:42:42;;;;;;;3.28;2.67;;;25.10;50.50;;;;;;5060501;28;20025;-65
2022/08/30 06:45:08;;;;;;;4.50;3.40;;;25.00;50.60;;;;;;5061696;28;20017;-64
2022/08/30 06:47:34;;;;;;;4.43;3.13;;;25.00;50.70;;;;;;5062878;28;20128;-65
2022/08/30 06:50:00;;;;;;;4.72;3.40;;;24.90;50.70;;;;;;5063563;28;20036;-65
2022/08/30 06:52:26;;;;;;;4.47;3.47;;;24.90;50.80;;;;;;5061990;28;20029;-65
2022/08/30 06:54:54;;;;;;;3.97;3.20;;;24.90;50.80;;;;;;5043799;28;20036;-65
2022/08/30 06:57:19;;;;;;;4.95;3.80;;;24.90;50.80;;;;;;5060692;28;20092;-65
2022/08/30 06:59:45;;;;;;;5.00;3.42;;;24.90;51.00;;;;;;5062147;28;20021;-65
2022/08/30 07:02:11;;;;;;;5.25;3.97;;;24.80;51.20;;;;;;5060992;28;20049;-65
2022/08/30 07:04:37;;;;;;;5.30;3.45;;;24.80;51.30;;;;;;5061515;28;20048;-65
2022/08/30 07:07:03;;;;;;;4.45;3.47;;;24.80;51.60;;;;;;5061590;28;20104;-65
2022/08/30 07:09:29;;;;;;;4.97;4.05;;;24.80;52.40;;;;;;5062164;28;20040;-65
2022/08/30 07:11:55;;;;;;;5.32;3.78;;;24.80;52.00;;;;;;5062277;28;20024;-65
2022/08/30 07:14:21;;;;;;;6.22;3.97;;;24.80;52.30;;;;;;5062348;28;20408;-65
2022/08/30 07:16:46;;;;;;;5.82;4.53;;;24.70;52.50;;;;;;5060166;28;20025;-65
2022/08/30 07:19:12;;;;;;;5.50;4.70;;;24.70;52.60;;;;;;5062216;28;20102;-65
2022/08/30 07:21:44;;;;;;;6.07;4.85;;;24.70;53.00;;;;;;5061501;28;20032;-65
2022/08/30 07:24:11;;;;;;;5.45;4.88;;;24.60;53.10;;;;;;5062018;28;20452;-65
2022/08/30 07:26:42;;;;;;;5.70;4.63;;;24.70;53.30;;;;;;5060737;28;20020;-66
2022/08/30 07:29:08;;;;;;;5.05;4.07;;;24.60;53.20;;;;;;5061417;28;20024;-66
2022/08/30 07:31:35;;;;;;;4.63;3.65;;;24.60;53.50;;;;;;5061540;28;20120;-64
2022/08/30 07:34:02;;;;;;;4.00;3.40;;;24.60;53.60;;;;;;5061239;28;20052;-64
2022/08/30 07:36:28;;;;;;;4.18;3.45;;;24.50;53.70;;;;;;5061961;28;20171;-64
2022/08/30 07:38:54;;;;;;;4.68;3.17;;;24.50;53.70;;;;;;5060341;28;20182;-64
2022/08/30 07:41:23;;;;;;;4.07;3.17;;;24.40;53.70;;;;;;5059966;28;20029;-64
2022/08/30 07:43:49;;;;;;;3.90;3.03;;;24.50;53.80;;;;;;5060321;28;20482;-63
2022/08/30 07:46:15;;;;;;;3.80;2.80;;;24.50;53.70;;;;;;5059227;28;20385;-64
2022/08/30 07:48:41;;;;;;;3.83;2.97;;;24.50;53.70;;;;;;5060928;28;20539;-64
2022/08/30 07:51:16;;;;;;;3.75;3.00;;;24.50;53.70;;;;;;5061845;28;20434;-63
2022/08/30 07:53:42;;;;;;;3.65;2.75;;;24.50;53.60;;;;;;5058803;28;20337;-63
2022/08/30 07:56:08;;;;;;;4.07;2.80;;;24.50;53.60;;;;;;5061730;28;20024;-64
2022/08/30 07:58:36;;;;;;;3.40;2.90;;;24.50;53.50;;;;;;5060747;28;20070;-64
2022/08/30 08:01:02;;;;;;;3.50;2.95;;;24.50;54.10;;;;;;5059715;28;20032;-64
2022/08/30 08:03:28;;;;;;;4.63;3.10;;;24.50;53.50;;;;;;5061325;28;20025;-64
2022/08/30 08:05:54;;;;;;;3.70;2.85;;;24.50;53.50;;;;;;5061055;28;20025;-63
2022/08/30 08:08:21;;;;;;;3.58;2.80;;;24.40;54.00;;;;;;5060990;28;20029;-64
2022/08/30 08:10:47;;;;;;;3.03;2.72;;;24.40;53.40;;;;;;5059938;28;20032;-63
2022/08/30 08:13:12;;;;;;;3.85;3.10;;;24.50;53.50;;;;;;5058955;28;20049;-64
2022/08/30 08:15:38;;;;;;;3.90;2.88;;;24.50;53.50;;;;;;5060032;28;20392;-63
2022/08/30 08:18:04;;;;;;;3.65;2.90;;;24.50;53.50;;;;;;5060426;28;20051;-63
2022/08/30 08:20:32;;;;;;;3.00;2.58;;;24.50;53.60;;;;;;5059861;28;20475;-63
2022/08/30 08:22:58;;;;;;;3.67;2.88;;;24.50;53.50;;;;;;5060244;28;20536;-63
2022/08/30 08:25:23;;;;;;;3.75;2.88;;;24.50;53.50;;;;;;5059715;28;20112;-63
2022/08/30 08:27:50;;;;;;;3.28;2.65;;;24.50;53.50;;;;;;5060911;28;20124;-64
2022/08/30 08:30:18;;;;;;;3.28;2.60;;;24.50;53.50;;;;;;5060263;28;20104;-63
2022/08/30 08:32:44;;;;;;;3.60;2.88;;;24.50;53.40;;;;;;5059816;28;20480;-63
2022/08/30 08:35:10;;;;;;;4.63;2.83;;;24.50;53.40;;;;;;5059737;28;20481;-64
2022/08/30 08:37:37;;;;;;;3.00;2.60;;;24.50;53.40;;;;;;5060680;28;20539;-63
2022/08/30 08:40:04;;;;;;;3.20;2.70;;;24.60;53.40;;;;;;5059905;28;20074;-64
2022/08/30 08:42:59;;;;;;;3.28;2.80;;;24.60;53.30;;;;;;5059823;28;20081;-63
2022/08/30 08:45:31;;;;;;;3.60;2.92;;;24.50;53.20;;;;;;5059234;28;20029;-63
2022/08/30 08:48:00;;;;;;;3.05;2.67;;;24.60;53.20;;;;;;5058885;28;20069;-64
2022/08/30 08:50:26;;;;;;;;;;;24.50;53.10;;;;;;5059159;28;20032;-64
2022/08/30 08:55:57;;;;;;;3.70;2.60;;;24.60;53.00;;;;;;5060386;28;20047;-63
2022/08/30 08:58:29;;;;;;;3.42;2.72;;;24.60;53.00;;;;;;5060102;28;20029;-64
2022/08/30 09:00:56;;;;;;;3.30;2.92;;;24.60;53.10;;;;;;5058878;28;20029;-63
2022/08/30 09:03:25;;;;;;;3.22;2.70;;;24.60;53.50;;;;;;5058851;28;20163;-64
2022/08/30 09:05:52;;;;;;;4.27;2.73;;;24.60;53.00;;;;;;5060543;28;20025;-63
2022/08/30 09:08:20;;;;;;;3.22;2.40;;;24.60;53.00;;;;;;5059592;28;20040;-63
2022/08/30 09:11:00;;;;;;;3.17;2.60;;;24.70;53.00;;;;;;5057785;28;20103;-63
2022/08/30 09:13:26;;;;;;;3.15;2.60;;;24.60;53.00;;;;;;5058442;28;20844;-64
2022/08/30 09:15:55;;;;;;;3.38;2.90;;;24.70;53.00;;;;;;5060527;28;20050;-63
2022/08/30 09:18:46;;;;;;;3.53;2.75;;;24.70;53.00;;;;;;5059669;28;20061;-63
2022/08/30 09:21:19;;;;;;;3.08;2.65;;;24.70;53.00;;;;;;5058807;28;20112;-64
2022/08/30 09:23:54;;;;;;;2.60;2.25;;;24.70;53.00;;;;;;5060851;28;20035;-64
2022/08/30 09:26:35;;;;;;;3.05;2.40;;;24.70;53.00;;;;;;5061384;28;20388;-64
2022/08/30 09:29:01;;;;;;;3.08;2.38;;;24.70;53.00;;;;;;5057706;28;20017;-64
2022/08/30 09:31:49;;;;;;;3.30;2.40;;;24.70;53.00;;;;;;5059903;28;20043;-64
2022/08/30 09:34:18;;;;;;;3.08;2.60;;;24.70;53.00;;;;;;5058625;28;20059;-63
2022/08/30 09:36:50;;;;;;;3.30;2.47;;;24.70;53.00;;;;;;5060600;28;20052;-64
2022/08/30 09:39:25;;;;;;;3.30;2.60;;;24.70;52.90;;;;;;5063358;28;20274;-63
2022/08/30 09:41:50;;;;;;;2.85;2.50;;;24.70;52.90;;;;;;5064451;28;20037;-64
2022/08/30 09:44:16;;;;;;;3.22;2.40;;;24.70;52.90;;;;;;5062924;28;20024;-63
2022/08/30 09:46:56;;;;;;;3.15;2.38;;;24.70;52.90;;;;;;5065157;28;20032;-64
2022/08/30 09:49:37;;;;;;;3.08;2.45;;;24.70;52.80;;;;;;5064075;28;20480;-64
2022/08/30 09:52:11;;;;;;;2.85;2.30;;;24.80;52.90;;;;;;5061831;28;20100;-63
2022/08/30 09:55:03;;;;;;;3.40;2.65;;;24.70;52.80;;;;;;5064408;28;20507;-63
2022/08/30 09:57:51;;;;;;;3.10;2.35;;;24.70;52.80;;;;;;5034835;28;20479;-64
2022/08/30 10:00:20;;;;;;;3.35;2.58;;;24.80;52.80;;;;;;5061380;28;20036;-63
2022/08/30 10:03:04;;;;;;;3.22;2.65;;;24.80;52.70;;;;;;5063398;28;20478;-63
2022/08/30 10:06:02;;;;;;;3.03;2.50;;;24.80;52.70;;;;;;5063051;28;20037;-64
2022/08/30 10:08:31;;;;;;;3.25;2.55;;;24.80;52.70;;;;;;5062647;28;20404;-64
2022/08/30 10:11:36;;;;;;;3.17;2.60;;;24.80;52.70;;;;;;5063480;28;20021;-64
2022/08/30 10:14:06;;;;;;;3.00;2.45;;;24.80;52.70;;;;;;5033212;28;20045;-64
2022/08/30 10:16:53;;;;;;;3.05;2.33;;;24.80;52.60;;;;;;5062624;28;20036;-63
2022/08/30 10:19:43;;;;;;;2.65;2.15;;;24.80;52.60;;;;;;5063952;28;20118;-64
2022/08/30 10:22:19;;;;;;;2.70;2.20;;;24.80;52.60;;;;;;5061585;28;20036;-63
2022/08/30 10:25:08;;;;;;;3.08;2.40;;;24.80;52.60;;;;;;5063370;28;20530;-64
2022/08/30 10:27:41;;;;;;;3.42;2.50;;;24.80;52.60;;;;;;5061814;28;20029;-64
2022/08/30 10:30:12;;;;;;;3.60;2.40;;;24.80;52.60;;;;;;5062372;28;20424;-63
2022/08/30 10:32:47;;;;;;;2.60;2.20;;;24.80;52.60;;;;;;5062720;28;20425;-64
2022/08/30 10:35:22;;;;;;;2.92;2.20;;;24.80;52.60;;;;;;5062344;28;20029;-64
2022/08/30 10:38:02;;;;;;;2.63;2.20;;;24.80;52.60;;;;;;5062796;28;20032;-64
2022/08/30 10:43:41;;;;;;;2.80;2.20;;;24.80;52.60;;;;;;5061777;28;20155;-63
2022/08/30 10:46:23;;;;;;;2.92;2.30;;;24.80;52.60;;;;;;5030605;28;20116;-63
2022/08/30 10:48:49;;;;;;;2.80;2.30;;;24.80;52.60;;;;;;5061503;28;20405;-64
2022/08/30 10:51:26;;;;;;;2.80;2.00;;;24.90;52.60;;;;;;5061495;28;20090;-63
2022/08/30 10:54:18;;;;;;;3.08;2.13;;;24.90;52.60;;;;;;5062495;28;20473;-64
2022/08/30 10:56:48;;;;;;;2.40;2.00;;;24.90;52.60;;;;;;5061475;28;20362;-63
2022/08/30 10:59:17;;;;;;;2.60;2.10;;;24.90;52.60;;;;;;5062410;28;20362;-64
2022/08/30 11:01:55;;;;;;;3.13;2.20;;;24.90;53.10;;;;;;5059197;28;20453;-63
2022/08/30 11:05:01;;;;;;;2.40;1.92;;;24.90;52.60;;;;;;5061478;28;20067;-63
2022/08/30 11:07:54;;;;;;;2.85;2.20;;;24.90;52.50;;;;;;4990487;28;20565;-63
2022/08/30 11:10:41;;;;;;;3.10;2.30;;;24.90;52.60;;;;;;4989215;28;20034;-63
2022/08/30 11:13:12;;;;;;;2.90;2.33;;;24.90;52.60;;;;;;5048097;28;20063;-63
2022/08/30 11:15:58;;;;;;;3.08;2.15;;;24.90;52.60;;;;;;5061526;28;20037;-64
2022/08/30 11:18:25;;;;;;;3.40;2.35;;;24.90;52.60;;;;;;5061188;28;20564;-64
2022/08/30 11:20:55;;;;;;;2.63;2.20;;;24.90;53.10;;;;;;5060648;28;20107;-64
2022/08/30 11:23:33;;;;;;;2.92;2.40;;;24.90;52.60;;;;;;5062794;28;20019;-63
2022/08/30 11:26:10;;;;;;;2.95;2.22;;;24.90;52.60;;;;;;5061081;28;20472;-64
2022/08/30 11:28:35;;;;;;;2.60;2.00;;;24.90;52.60;;;;;;5059253;28;20029;-63
2022/08/30 11:31:09;;;;;;;2.90;2.30;;;24.90;52.60;;;;;;5061703;28;20090;-64
2022/08/30 11:33:50;;;;;;;2.60;2.10;;;24.90;52.70;;;;;;5060756;28;20047;-64
2022/08/30 11:36:31;;;;;;;2.80;2.10;;;24.90;52.60;;;;;;5062159;28;20029;-64
2022/08/30 11:39:09;;;;;;;2.55;2.05;;;24.90;52.70;;;;;;5059336;28;20021;-64
2022/08/30 11:41:44;;;;;;;2.63;2.10;;;25.00;52.70;;;;;;5061272;28;20032;-64
2022/08/30 11:44:24;;;;;;;2.30;2.00;;;25.00;52.70;;;;;;5060953;28;20029;-64
2022/08/30 11:46:53;;;;;;;2.72;1.92;;;25.00;52.70;;;;;;5061723;28;20037;-64
2022/08/30 11:49:19;;;;;;;;;;;24.90;52.70;;;;;;5062253;28;20052;-63
2022/08/30 11:51:50;;;;;;;3.00;1.95;;;25.00;52.80;;;;;;5061073;28;20403;-64
2022/08/30 11:54:53;;;;;;;2.97;2.10;;;25.00;52.70;;;;;;5060816;28;20412;-64
2022/08/30 11:57:44;;;;;;;2.80;2.30;;;25.00;52.80;;;;;;5060562;28;20021;-64
2022/08/30 12:00:38;;;;;;;2.72;2.13;;;25.00;52.80;;;;;;5059942;28;20041;-63
2022/08/30 12:03:30;;;;;;;2.78;2.08;;;25.00;52.80;;;;;;5053836;28;20029;-64
2022/08/30 12:06:02;;;;;;;2.80;2.13;;;25.00;52.80;;;;;;5054163;28;20082;-64
2022/08/30 12:08:32;;;;;;;2.78;2.10;;;25.00;52.80;;;;;;5060239;28;20097;-63
2022/08/30 12:11:07;;;;;;;2.63;1.95;;;25.00;52.80;;;;;;5060161;28;20584;-64
2022/08/30 12:13:33;;;;;;;2.70;2.10;;;25.00;52.80;;;;;;5061289;28;20525;-64
2022/08/30 12:16:20;;;;;;;2.80;2.20;;;25.00;52.80;;;;;;5060913;28;20033;-64
2022/08/30 12:19:14;;;;;;;2.70;2.10;;;25.00;52.80;;;;;;5060347;28;20400;-64
2022/08/30 12:21:40;;;;;;;3.08;2.20;;;25.00;52.80;;;;;;5060834;28;20028;-63
2022/08/30 12:24:26;;;;;;;2.53;1.88;;;25.00;52.80;;;;;;5060347;28;20158;-63
2022/08/30 12:26:52;;;;;;;2.72;2.00;;;25.00;52.80;;;;;;5060336;28;20538;-63
2022/08/30 12:29:22;;;;;;;2.30;1.70;;;25.00;52.80;;;;;;5061856;28;20038;-64
2022/08/30 12:32:00;;;;;;;2.60;1.90;;;25.00;52.80;;;;;;5057925;28;20047;-64
2022/08/30 12:34:40;;;;;;;2.88;1.90;;;25.00;52.80;;;;;;5060031;28;20037;-64
2022/08/30 12:37:10;;;;;;;2.80;2.10;;;25.00;52.80;;;;;;5060199;28;20025;-64
2022/08/30 12:39:39;;;;;;;2.33;1.77;;;25.00;52.80;;;;;;5060635;28;20028;-64
2022/08/30 12:42:25;;;;;;;;;;;25.00;52.80;;;;;;5063138;28;20606;-63
2022/08/30 12:44:53;;;;;;;2.13;1.80;;;25.00;52.80;;;;;;5062002;28;19992;-64
2022/08/30 12:47:24;;;;;;;2.43;2.07;;;25.00;52.80;;;;;;5060910;28;20017;-63
2022/08/30 12:49:51;;;;;;;2.85;2.10;;;25.10;52.90;;;;;;5061282;28;20259;-63
2022/08/30 12:52:28;;;;;;;2.58;1.98;;;25.10;52.90;;;;;;5060961;28;20389;-64
2022/08/30 12:55:03;;;;;;;3.05;2.20;;;25.10;52.90;;;;;;5059257;28;20094;-64
2022/08/30 12:57:40;;;;;;;3.00;1.92;;;25.10;52.90;;;;;;5058553;28;20035;-64
2022/08/30 13:00:10;;;;;;;2.38;1.85;;;25.10;52.90;;;;;;5059800;28;20029;-64
2022/08/30 13:02:41;;;;;;;2.88;2.00;;;25.10;52.90;;;;;;5059308;28;20044;-64
2022/08/30 13:05:46;;;;;;;2.50;1.77;;;25.10;52.90;;;;;;5061761;28;20517;-63
2022/08/30 13:08:24;;;;;;;2.50;1.95;;;25.10;52.90;;;;;;4998415;28;20117;-64
2022/08/30 13:10:53;;;;;;;2.20;1.65;;;25.10;52.90;;;;;;4999348;28;20108;-64